createdAt,value
2018-12-18T00:01:06.774Z,81.54
2018-12-18T00:03:39.293Z,81.19
2018-12-18T00:06:06.509Z,81.21
2018-12-18T00:08:35.407Z,81.20
2018-12-18T00:11:04.535Z,81.40
2018-12-18T00:13:34.018Z,81.67
2018-12-18T00:16:04.195Z,81.71
2018-12-18T00:18:33.851Z,81.23
2018-12-18T00:21:02.641Z,81.45
2018-12-18T00:23:31.575Z,81.57
2018-12-18T00:26:00.423Z,81.57
2018-12-18T00:28:29.441Z,81.38
2018-12-18T00:30:58.369Z,81.41
2018-12-18T00:33:27.049Z,81.29
2018-12-18T00:35:55.813Z,81.29
2018-12-18T00:38:24.731Z,81.41
2018-12-18T00:40:53.693Z,81.52
2018-12-18T00:43:22.609Z,81.29
2018-12-18T00:45:51.795Z,81.25
2018-12-18T00:48:20.791Z,81.51
2018-12-18T00:50:49.587Z,81.54
2018-12-18T00:53:18.577Z,81.67
2018-12-18T00:55:53.926Z,81.57
2018-12-18T00:58:22.793Z,81.55
2018-12-18T01:00:51.633Z,81.58
2018-12-18T01:03:20.479Z,81.38
2018-12-18T01:05:49.370Z,81.92
2018-12-18T01:08:18.303Z,82.07
2018-12-18T01:10:47.053Z,81.87
2018-12-18T01:13:16.963Z,81.32
2018-12-18T01:15:45.847Z,82.11
2018-12-18T01:18:14.496Z,81.91
2018-12-18T01:20:43.320Z,81.81
2018-12-18T01:23:12.044Z,81.79
2018-12-18T01:25:40.767Z,81.86
2018-12-18T01:28:09.551Z,82.27
2018-12-18T01:30:38.197Z,82.33
2018-12-18T01:33:06.879Z,82.18
2018-12-18T01:35:35.756Z,82.36
2018-12-18T01:38:04.503Z,82.15
2018-12-18T01:40:33.847Z,82.23
2018-12-18T01:43:02.737Z,82.34
2018-12-18T01:45:31.406Z,82.07
2018-12-18T01:48:00.161Z,82.74
2018-12-18T01:50:29.048Z,82.88
2018-12-18T01:52:57.882Z,82.88
2018-12-18T01:55:26.630Z,82.85
2018-12-18T01:57:55.519Z,83.25
2018-12-18T02:00:24.927Z,82.98
2018-12-18T02:02:53.752Z,82.67
2018-12-18T02:05:22.779Z,82.66
2018-12-18T02:07:51.694Z,82.21
2018-12-18T02:10:20.488Z,82.22
2018-12-18T02:12:49.370Z,82.19
2018-12-18T02:15:18.236Z,81.88
2018-12-18T02:17:47.053Z,81.96
2018-12-18T02:20:15.925Z,81.69
2018-12-18T02:22:44.677Z,81.80
2018-12-18T02:25:13.524Z,81.49
2018-12-18T02:27:42.286Z,81.67
2018-12-18T02:30:11.042Z,82.13
2018-12-18T02:32:39.784Z,82.61
2018-12-18T02:35:08.569Z,82.29
2018-12-18T02:37:37.354Z,81.96
2018-12-18T02:40:06.570Z,82.23
2018-12-18T02:42:35.303Z,82.41
2018-12-18T02:45:04.464Z,82.05
2018-12-18T02:47:33.987Z,81.90
2018-12-18T02:50:02.779Z,81.95
2018-12-18T02:52:32.143Z,82.08
2018-12-18T02:55:00.774Z,82.33
2018-12-18T02:57:29.560Z,81.96
2018-12-18T02:59:58.254Z,81.94
2018-12-18T03:02:26.939Z,81.79
2018-12-18T03:04:55.791Z,81.58
2018-12-18T03:07:24.465Z,81.22
2018-12-18T03:09:53.189Z,81.04
2018-12-18T03:12:22.022Z,80.86
2018-12-18T03:14:50.777Z,80.92
2018-12-18T03:17:19.496Z,80.82
2018-12-18T03:19:48.523Z,81.01
2018-12-18T03:22:17.292Z,80.71
2018-12-18T03:24:46.081Z,80.65
2018-12-18T03:27:14.812Z,80.92
2018-12-18T03:29:43.585Z,80.42
2018-12-18T03:32:16.757Z,80.45
2018-12-18T03:34:45.520Z,79.77
2018-12-18T03:37:14.239Z,80.20
2018-12-18T03:39:43.052Z,80.56
2018-12-18T03:42:11.797Z,80.58
2018-12-18T03:44:40.484Z,80.69
2018-12-18T03:47:09.414Z,79.87
2018-12-18T03:49:38.151Z,81.18
2018-12-18T03:52:06.963Z,80.73
2018-12-18T03:54:36.146Z,80.87
2018-12-18T03:57:04.941Z,80.73
2018-12-18T03:59:34.054Z,80.73
2018-12-18T04:02:02.879Z,80.44
2018-12-18T04:04:35.497Z,81.14
2018-12-18T04:07:02.329Z,80.52
2018-12-18T04:09:31.278Z,80.91
2018-12-18T04:12:05.196Z,80.79
2018-12-18T04:14:34.164Z,80.66
2018-12-18T04:17:02.841Z,80.80
2018-12-18T04:19:31.599Z,80.98
2018-12-18T04:22:00.519Z,80.98
2018-12-18T04:24:29.314Z,80.71
2018-12-18T04:26:58.064Z,80.85
2018-12-18T04:29:26.848Z,80.57
2018-12-18T04:31:55.538Z,81.21
2018-12-18T04:34:24.225Z,81.03
2018-12-18T04:36:53.084Z,80.87
2018-12-18T04:39:22.303Z,80.45
2018-12-18T04:41:51.000Z,80.04
2018-12-18T04:44:19.996Z,79.70
2018-12-18T04:46:48.870Z,79.87
2018-12-18T04:49:17.687Z,80.09
2018-12-18T04:51:46.500Z,79.81
2018-12-18T04:54:15.210Z,79.64
2018-12-18T04:56:43.864Z,79.81
2018-12-18T04:59:12.707Z,79.96
2018-12-18T05:01:41.373Z,79.94
2018-12-18T05:04:10.026Z,79.72
2018-12-18T05:06:38.768Z,79.76
2018-12-18T05:09:09.887Z,79.43
2018-12-18T05:11:38.871Z,79.59
2018-12-18T05:14:07.768Z,79.30
2018-12-18T05:16:36.515Z,79.10
2018-12-18T05:19:06.045Z,78.88
2018-12-18T05:21:34.887Z,79.05
2018-12-18T05:24:03.765Z,78.71
2018-12-18T05:26:32.693Z,78.67
2018-12-18T05:29:01.792Z,78.67
2018-12-18T05:31:30.581Z,79.04
2018-12-18T05:33:59.268Z,79.21
2018-12-18T05:36:28.017Z,79.28
2018-12-18T05:38:56.877Z,79.04
2018-12-18T05:41:25.563Z,79.49
2018-12-18T05:43:54.540Z,79.05
2018-12-18T05:46:23.231Z,79.23
2018-12-18T05:48:52.106Z,78.97
2018-12-18T05:51:20.878Z,78.49
2018-12-18T05:53:49.645Z,78.46
2018-12-18T05:56:18.398Z,78.83
2018-12-18T05:58:47.228Z,78.08
2018-12-18T06:01:16.134Z,78.04
2018-12-18T06:03:44.857Z,78.19
2018-12-18T06:06:13.774Z,77.69
2018-12-18T06:08:42.512Z,78.00
2018-12-18T06:11:11.225Z,77.49
2018-12-18T06:13:40.143Z,77.50
2018-12-18T06:16:08.981Z,77.97
2018-12-18T06:18:37.732Z,77.88
2018-12-18T06:21:06.748Z,78.00
2018-12-18T06:23:36.145Z,77.82
2018-12-18T06:26:06.343Z,77.84
2018-12-18T06:28:36.213Z,77.81
2018-12-18T06:31:05.099Z,77.62
2018-12-18T06:33:33.904Z,77.61
2018-12-18T06:36:02.857Z,77.39
2018-12-18T06:38:31.643Z,77.25
2018-12-18T06:41:00.456Z,77.39
2018-12-18T06:43:29.222Z,77.00
2018-12-18T06:45:58.041Z,77.14
2018-12-18T06:48:26.768Z,77.13
2018-12-18T06:50:55.560Z,77.30
2018-12-18T06:53:24.581Z,76.55
2018-12-18T06:55:53.339Z,76.61
2018-12-18T06:58:22.235Z,76.32
2018-12-18T07:00:50.987Z,76.04
2018-12-18T07:03:19.768Z,76.27
2018-12-18T07:05:48.632Z,76.25
2018-12-18T07:08:17.414Z,75.68
2018-12-18T07:10:46.128Z,76.19
2018-12-18T07:13:15.013Z,76.45
2018-12-18T07:15:43.735Z,76.12
2018-12-18T07:18:12.541Z,76.20
2018-12-18T07:20:41.731Z,76.50
2018-12-18T07:23:10.516Z,76.43
2018-12-18T07:25:39.201Z,76.43
2018-12-18T07:28:08.447Z,76.24
2018-12-18T07:30:37.469Z,76.13
2018-12-18T07:33:06.321Z,76.34
2018-12-18T07:35:35.113Z,76.50
2018-12-18T07:38:04.808Z,76.45
2018-12-18T07:40:33.846Z,76.76
2018-12-18T07:43:04.290Z,77.10
2018-12-18T07:45:33.097Z,76.97
2018-12-18T07:48:01.908Z,76.87
2018-12-18T07:50:30.696Z,76.70
2018-12-18T07:52:59.474Z,76.23
2018-12-18T07:55:28.966Z,76.75
2018-12-18T07:57:57.818Z,76.41
2018-12-18T08:00:26.575Z,76.49
2018-12-18T08:02:55.503Z,77.07
2018-12-18T08:05:29.869Z,76.60
2018-12-18T08:07:55.284Z,77.29
2018-12-18T08:10:24.267Z,77.05
2018-12-18T08:12:53.245Z,76.72
2018-12-18T08:15:21.952Z,76.86
2018-12-18T08:17:50.714Z,76.31
2018-12-18T08:20:19.551Z,76.18
2018-12-18T08:22:48.302Z,75.70
2018-12-18T08:25:17.110Z,75.95
2018-12-18T08:27:46.249Z,75.46
2018-12-18T08:30:15.207Z,75.47
2018-12-18T08:32:43.925Z,75.77
2018-12-18T08:35:12.817Z,75.38
2018-12-18T08:37:41.535Z,74.99
2018-12-18T08:40:10.460Z,74.59
2018-12-18T08:42:39.350Z,74.55
2018-12-18T08:45:09.593Z,74.33
2018-12-18T08:47:38.386Z,73.64
2018-12-18T08:50:08.450Z,73.53
2018-12-18T08:52:37.268Z,74.04
2018-12-18T08:55:07.275Z,73.19
2018-12-18T08:57:36.569Z,73.21
2018-12-18T09:00:07.725Z,73.61
2018-12-18T09:02:36.447Z,73.05
2018-12-18T09:05:05.993Z,73.11
2018-12-18T09:07:34.709Z,72.77
2018-12-18T09:10:03.565Z,72.43
2018-12-18T09:12:32.461Z,72.84
2018-12-18T09:15:03.262Z,72.38
2018-12-18T09:17:37.287Z,72.72
2018-12-18T09:20:06.864Z,72.95
2018-12-18T09:22:36.520Z,72.73
2018-12-18T09:25:06.019Z,72.85
2018-12-18T09:27:34.704Z,72.80
2018-12-18T09:30:03.746Z,72.80
2018-12-18T09:32:32.713Z,73.10
2018-12-18T09:35:01.414Z,72.85
2018-12-18T09:37:30.232Z,72.99
2018-12-18T09:39:59.493Z,72.91
2018-12-18T09:42:33.334Z,72.99
2018-12-18T09:45:02.334Z,72.89
2018-12-18T09:47:31.118Z,73.07
2018-12-18T09:49:59.803Z,72.90
2018-12-18T09:52:28.620Z,73.09
2018-12-18T09:54:57.480Z,72.78
2018-12-18T09:57:31.324Z,73.11
2018-12-18T10:00:00.207Z,73.16
2018-12-18T10:02:29.066Z,73.14
2018-12-18T10:04:58.409Z,72.97
2018-12-18T10:07:27.357Z,73.50
2018-12-18T10:10:04.901Z,73.29
2018-12-18T10:12:38.786Z,73.57
2018-12-18T10:15:07.933Z,74.16
2018-12-18T10:17:36.574Z,74.20
2018-12-18T10:20:05.670Z,74.38
2018-12-18T10:22:34.455Z,74.28
2018-12-18T10:25:03.347Z,74.26
2018-12-18T10:27:32.131Z,74.27
2018-12-18T10:30:01.002Z,74.38
2018-12-18T10:32:29.715Z,74.26
2018-12-18T10:34:58.474Z,74.23
2018-12-18T10:37:27.388Z,74.47
2018-12-18T10:39:56.163Z,74.56
2018-12-18T10:42:24.970Z,74.64
2018-12-18T10:44:53.863Z,74.70
2018-12-18T10:47:22.653Z,74.87
2018-12-18T10:49:51.293Z,74.92
2018-12-18T10:52:20.045Z,75.13
2018-12-18T10:54:48.773Z,74.76
2018-12-18T10:57:17.489Z,74.90
2018-12-18T10:59:46.528Z,74.76
2018-12-18T11:02:15.200Z,74.25
2018-12-18T11:04:43.956Z,74.49
2018-12-18T11:07:12.958Z,74.41
2018-12-18T11:09:41.683Z,74.66
2018-12-18T11:12:10.497Z,74.64
2018-12-18T11:14:39.322Z,74.26
2018-12-18T11:17:08.018Z,74.46
2018-12-18T11:19:36.740Z,75.27
2018-12-18T11:22:05.665Z,74.73
2018-12-18T11:24:34.395Z,75.06
2018-12-18T11:27:03.121Z,74.96
2018-12-18T11:29:31.925Z,74.80
2018-12-18T11:32:00.655Z,74.49
2018-12-18T11:34:29.327Z,74.39
2018-12-18T11:36:58.416Z,74.33
2018-12-18T11:39:27.203Z,74.07
2018-12-18T11:41:55.932Z,74.40
2018-12-18T11:44:24.790Z,74.08
2018-12-18T11:46:53.550Z,74.43
2018-12-18T11:49:22.602Z,74.26
2018-12-18T11:51:51.285Z,74.53
2018-12-18T11:54:19.956Z,74.37
2018-12-18T11:56:48.651Z,74.79
2018-12-18T11:59:17.444Z,74.43
2018-12-18T12:01:46.153Z,74.49
2018-12-18T12:04:14.817Z,74.14
2018-12-18T12:06:43.884Z,74.36
2018-12-18T12:09:12.621Z,73.98
2018-12-18T12:11:41.263Z,73.52
2018-12-18T12:14:10.064Z,73.02
2018-12-18T12:16:38.837Z,72.86
2018-12-18T12:19:07.539Z,72.77
2018-12-18T12:21:36.726Z,72.83
2018-12-18T12:24:05.465Z,72.99
2018-12-18T12:26:35.166Z,73.19
2018-12-18T12:29:03.949Z,73.56
2018-12-18T12:31:32.641Z,72.97
2018-12-18T12:34:01.335Z,73.50
2018-12-18T12:36:30.077Z,73.16
2018-12-18T12:38:58.824Z,73.52
2018-12-18T12:41:27.643Z,73.40
2018-12-18T12:43:56.374Z,73.19
2018-12-18T12:46:25.115Z,73.00
2018-12-18T12:48:55.562Z,73.20
2018-12-18T12:51:24.773Z,73.85
2018-12-18T12:53:53.677Z,73.69
2018-12-18T12:56:22.882Z,73.84
2018-12-18T12:58:51.717Z,73.25
2018-12-18T13:01:20.404Z,73.15
2018-12-18T13:03:49.251Z,72.98
2018-12-18T13:06:18.320Z,73.06
2018-12-18T13:08:47.129Z,73.13
2018-12-18T13:11:17.051Z,72.69
2018-12-18T13:13:48.954Z,72.62
2018-12-18T13:16:20.722Z,72.33
2018-12-18T13:18:49.916Z,72.16
2018-12-18T13:21:18.625Z,71.96
2018-12-18T13:23:47.307Z,71.15
2018-12-18T13:26:18.223Z,70.75
2018-12-18T13:28:46.931Z,71.21
2018-12-18T13:31:15.763Z,71.34
2018-12-18T13:33:44.801Z,71.45
2018-12-18T13:36:15.233Z,70.84
2018-12-18T13:38:44.240Z,70.75
2018-12-18T13:41:13.309Z,71.46
2018-12-18T13:43:41.995Z,71.25
2018-12-18T13:46:14.986Z,70.77
2018-12-18T13:48:41.667Z,70.95
2018-12-18T13:51:10.471Z,71.00
2018-12-18T13:53:39.550Z,71.11
2018-12-18T13:56:08.452Z,70.90
2018-12-18T13:58:37.178Z,70.40
2018-12-18T14:01:07.382Z,70.44
2018-12-18T14:03:37.240Z,70.44
2018-12-18T14:06:06.892Z,70.73
2018-12-18T14:08:35.629Z,70.90
2018-12-18T14:11:04.523Z,70.99
2018-12-18T14:13:33.398Z,71.36
2018-12-18T14:16:02.077Z,71.43
2018-12-18T14:18:31.673Z,71.85
2018-12-18T14:21:00.562Z,71.67
2018-12-18T14:23:29.275Z,71.87
2018-12-18T14:25:58.443Z,71.84
2018-12-18T14:28:27.227Z,71.96
2018-12-18T14:30:56.311Z,72.13
2018-12-18T14:33:25.048Z,71.86
2018-12-18T14:35:53.803Z,72.12
2018-12-18T14:38:22.538Z,72.06
2018-12-18T14:40:51.377Z,71.74
2018-12-18T14:43:20.272Z,71.51
2018-12-18T14:45:48.983Z,71.53
2018-12-18T14:48:17.744Z,71.36
2018-12-18T14:50:46.430Z,71.16
2018-12-18T14:53:15.196Z,70.97
2018-12-18T14:55:44.166Z,70.75
2018-12-18T14:58:12.900Z,70.47
2018-12-18T15:00:41.730Z,70.09
2018-12-18T15:03:10.436Z,69.87
2018-12-18T15:05:39.122Z,69.52
2018-12-18T15:08:07.824Z,68.97
2018-12-18T15:10:37.053Z,69.06
2018-12-18T15:13:05.975Z,68.89
2018-12-18T15:15:34.620Z,69.15
2018-12-18T15:18:03.413Z,69.45
2018-12-18T15:20:32.091Z,69.63
2018-12-18T15:23:00.780Z,69.94
2018-12-18T15:25:31.110Z,69.62
2018-12-18T15:27:59.770Z,70.40
2018-12-18T15:30:28.864Z,70.53
2018-12-18T15:32:57.722Z,70.75
2018-12-18T15:35:27.493Z,71.34
2018-12-18T15:37:56.203Z,71.29
2018-12-18T15:40:25.102Z,71.88
2018-12-18T15:42:53.837Z,71.44
2018-12-18T15:45:22.638Z,71.66
2018-12-18T15:47:51.436Z,71.63
2018-12-18T15:50:20.148Z,71.38
2018-12-18T15:52:48.872Z,71.57
2018-12-18T15:55:17.640Z,71.56
2018-12-18T15:57:46.388Z,71.24
2018-12-18T16:00:15.216Z,71.34
2018-12-18T16:02:44.000Z,71.27
2018-12-18T16:05:12.777Z,71.18
2018-12-18T16:07:41.536Z,71.37
2018-12-18T16:10:10.458Z,71.50
2018-12-18T16:12:39.119Z,70.87
2018-12-18T16:15:08.567Z,71.36
2018-12-18T16:17:37.508Z,70.92
2018-12-18T16:20:07.686Z,71.25
2018-12-18T16:22:37.136Z,71.28
2018-12-18T16:25:06.171Z,71.52
2018-12-18T16:27:34.950Z,71.29
2018-12-18T16:30:03.910Z,71.18
2018-12-18T16:32:32.723Z,71.35
2018-12-18T16:35:01.493Z,71.05
2018-12-18T16:37:30.842Z,71.28
2018-12-18T16:39:59.800Z,70.94
2018-12-18T16:42:28.579Z,71.12
2018-12-18T16:44:57.503Z,71.05
2018-12-18T16:47:26.393Z,70.62
2018-12-18T16:49:55.227Z,70.83
2018-12-18T16:52:24.105Z,70.49
2018-12-18T16:54:52.961Z,70.80
2018-12-18T16:57:21.754Z,70.90
2018-12-18T16:59:50.484Z,71.23
2018-12-18T17:02:19.330Z,71.94
2018-12-18T17:04:48.120Z,71.81
2018-12-18T17:07:16.872Z,72.33
2018-12-18T17:09:45.667Z,72.58
2018-12-18T17:12:14.380Z,72.33
2018-12-18T17:14:43.113Z,72.54
2018-12-18T17:17:11.854Z,72.60
2018-12-18T17:19:40.581Z,72.67
2018-12-18T17:22:09.349Z,72.96
2018-12-18T17:24:38.261Z,73.57
2018-12-18T17:27:07.110Z,73.31
2018-12-18T17:29:35.768Z,73.49
2018-12-18T17:32:04.586Z,73.67
2018-12-18T17:34:33.311Z,74.14
2018-12-18T17:37:01.959Z,74.44
2018-12-18T17:39:30.736Z,74.48
2018-12-18T17:41:59.451Z,74.32
2018-12-18T17:44:28.270Z,74.21
2018-12-18T17:46:57.087Z,74.40
2018-12-18T17:49:25.999Z,74.91
2018-12-18T17:51:55.033Z,74.57
2018-12-18T17:54:24.084Z,74.61
2018-12-18T17:56:52.857Z,74.83
2018-12-18T17:59:21.658Z,74.77
2018-12-18T18:01:50.488Z,74.55
2018-12-18T18:04:19.355Z,74.59
2018-12-18T18:06:48.233Z,74.89
2018-12-18T18:09:17.139Z,74.88
2018-12-18T18:11:45.895Z,74.97
2018-12-18T18:14:14.914Z,75.12
2018-12-18T18:16:43.813Z,75.42
2018-12-18T18:19:12.631Z,75.57
2018-12-18T18:21:41.387Z,75.39
2018-12-18T18:24:10.245Z,75.42
2018-12-18T18:26:39.258Z,75.26
2018-12-18T18:29:08.192Z,75.34
2018-12-18T18:31:37.454Z,75.27
2018-12-18T18:34:07.196Z,75.45
2018-12-18T18:36:35.955Z,75.59
2018-12-18T18:39:07.495Z,76.17
2018-12-18T18:41:37.420Z,75.96
2018-12-18T18:44:07.256Z,75.87
2018-12-18T18:46:36.428Z,76.15
2018-12-18T18:49:05.216Z,76.26
2018-12-18T18:51:34.005Z,75.91
2018-12-18T18:54:02.971Z,76.27
2018-12-18T18:56:31.735Z,76.09
2018-12-18T18:59:00.557Z,76.07
2018-12-18T19:01:29.397Z,76.24
2018-12-18T19:03:58.096Z,76.36
2018-12-18T19:06:26.939Z,75.16
2018-12-18T19:08:55.833Z,74.91
2018-12-18T19:11:24.525Z,75.16
2018-12-18T19:13:53.413Z,75.40
2018-12-18T19:16:22.532Z,75.48
2018-12-18T19:18:51.352Z,75.78
2018-12-18T19:21:20.066Z,75.91
2018-12-18T19:23:48.976Z,75.79
2018-12-18T19:26:17.674Z,76.31
2018-12-18T19:28:50.240Z,76.36
2018-12-18T19:31:17.215Z,76.05
2018-12-18T19:33:45.949Z,76.16
2018-12-18T19:36:14.673Z,76.26
2018-12-18T19:38:43.492Z,76.51
2018-12-18T19:41:12.241Z,76.40
2018-12-18T19:43:40.979Z,76.26
2018-12-18T19:46:09.897Z,76.07
2018-12-18T19:48:38.948Z,76.07
2018-12-18T19:51:07.761Z,75.89
2018-12-18T19:53:37.927Z,76.03
2018-12-18T19:56:07.307Z,75.87
2018-12-18T19:58:36.126Z,76.14
2018-12-18T20:01:05.125Z,75.42
2018-12-18T20:03:33.873Z,75.98
2018-12-18T20:06:02.595Z,76.27
2018-12-18T20:08:32.283Z,76.63
2018-12-18T20:11:01.546Z,76.92
2018-12-18T20:13:30.516Z,77.07
2018-12-18T20:15:59.330Z,77.08
2018-12-18T20:18:28.127Z,77.00
2018-12-18T20:20:56.966Z,77.37
2018-12-18T20:23:25.768Z,77.57
2018-12-18T20:25:55.090Z,77.22
2018-12-18T20:28:25.787Z,77.26
2018-12-18T20:30:54.800Z,77.54
2018-12-18T20:33:23.589Z,77.87
2018-12-18T20:35:52.354Z,77.77
2018-12-18T20:38:21.214Z,77.64
2018-12-18T20:40:49.973Z,77.76
2018-12-18T20:43:18.759Z,77.87
2018-12-18T20:45:47.603Z,79.00
2018-12-18T20:48:16.316Z,79.48
2018-12-18T20:50:45.103Z,79.90
2018-12-18T20:53:14.044Z,79.61
2018-12-18T20:55:42.992Z,80.20
2018-12-18T20:58:11.698Z,80.28
2018-12-18T21:00:40.466Z,80.27
2018-12-18T21:03:09.255Z,79.99
2018-12-18T21:05:37.939Z,80.13
2018-12-18T21:08:07.569Z,80.26
2018-12-18T21:10:37.392Z,80.21
2018-12-18T21:13:40.466Z,80.02
2018-12-18T21:16:09.581Z,80.15
2018-12-18T21:18:38.437Z,80.00
2018-12-18T21:21:07.613Z,80.07
2018-12-18T21:23:37.590Z,80.22
2018-12-18T21:26:07.474Z,80.21
2018-12-18T21:28:36.362Z,79.54
2018-12-18T21:31:05.162Z,79.42
2018-12-18T21:33:33.920Z,79.36
2018-12-18T21:36:02.909Z,79.07
2018-12-18T21:38:31.661Z,78.81
2018-12-18T21:41:00.622Z,78.69
2018-12-18T21:43:29.497Z,78.09
2018-12-18T21:45:58.229Z,78.15
2018-12-18T21:48:27.035Z,77.83
2018-12-18T21:50:55.844Z,77.46
2018-12-18T21:53:24.691Z,77.46
2018-12-18T21:55:53.517Z,77.46
2018-12-18T21:58:22.337Z,77.82
2018-12-18T22:00:51.023Z,77.12
2018-12-18T22:03:19.685Z,77.49
2018-12-18T22:05:48.744Z,77.26
2018-12-18T22:08:17.700Z,77.10
2018-12-18T22:10:46.663Z,77.27
2018-12-18T22:13:15.761Z,77.22
2018-12-18T22:15:44.600Z,76.77
2018-12-18T22:18:13.432Z,76.48
2018-12-18T22:20:42.174Z,76.76
2018-12-18T22:23:10.923Z,76.49
2018-12-18T22:25:39.590Z,76.43
2018-12-18T22:28:08.461Z,75.75
2018-12-18T22:30:37.579Z,76.15
2018-12-18T22:33:06.369Z,75.61
2018-12-18T22:35:35.284Z,75.66
2018-12-18T22:38:04.001Z,75.22
2018-12-18T22:40:32.761Z,75.37
2018-12-18T22:43:01.652Z,75.30
2018-12-18T22:45:30.335Z,75.93
2018-12-18T22:47:59.055Z,75.80
2018-12-18T22:50:27.812Z,75.67
2018-12-18T22:52:56.550Z,75.67
2018-12-18T22:55:25.242Z,76.10
2018-12-18T22:57:54.103Z,75.95
2018-12-18T23:00:28.087Z,75.87
2018-12-18T23:02:56.870Z,76.29
2018-12-18T23:05:25.613Z,76.19
2018-12-18T23:07:54.300Z,75.97
2018-12-18T23:10:23.060Z,75.63
2018-12-18T23:12:51.778Z,76.01
2018-12-18T23:15:20.483Z,76.21
2018-12-18T23:17:49.307Z,76.03
2018-12-18T23:20:18.005Z,76.11
2018-12-18T23:22:46.816Z,75.98
2018-12-18T23:25:15.652Z,76.48
2018-12-18T23:27:44.340Z,76.20
2018-12-18T23:30:13.182Z,76.56
2018-12-18T23:32:41.914Z,76.66
2018-12-18T23:35:10.809Z,76.89
2018-12-18T23:37:39.546Z,77.17
2018-12-18T23:40:08.684Z,77.23
2018-12-18T23:42:37.640Z,78.10
2018-12-18T23:45:06.668Z,77.75
2018-12-18T23:47:35.425Z,78.53
2018-12-18T23:50:04.514Z,78.16
2018-12-18T23:52:33.351Z,78.76
2018-12-18T23:55:02.169Z,78.92
2018-12-18T23:57:30.915Z,78.48
2018-12-18T23:59:59.678Z,78.84
